Time;durP1;ratioP1;P1;durP2;ratioP2;P2;SDS_P1;SDS_P2;PMS_P1;PMS_P2;Temp;Humidity;BMP_temperature;BMP_pressure;BME280_temperature;BME280_humidity;BME280_pressure;Samples;Min_cycle;Max_cycle;Signal;HPM_P1;HPM_P2
2023/12/22 00:02:08;;;;;;;11.02;6.40;;;1.70;99.90;;;;;;5098282;28;20016;-82
2023/12/22 00:04:34;;;;;;;10.57;7.57;;;1.70;99.90;;;;;;5095471;28;20384;-83
2023/12/22 00:07:00;;;;;;;7.75;5.80;;;1.70;99.90;;;;;;5102480;28;20020;-83
2023/12/22 00:09:26;;;;;;;10.73;7.00;;;1.70;99.90;;;;;;5108626;28;20107;-82
2023/12/22 00:11:52;;;;;;;12.00;8.70;;;1.70;99.90;;;;;;5092628;28;20025;-83
2023/12/22 00:14:17;;;;;;;10.00;6.40;;;1.70;99.90;;;;;;5104993;28;20245;-83
2023/12/22 00:16:43;;;;;;;10.43;7.30;;;1.70;99.90;;;;;;5092336;28;20016;-83
2023/12/22 00:19:09;;;;;;;9.38;5.43;;;1.70;99.90;;;;;;5111900;28;20020;-82
2023/12/22 00:21:35;;;;;;;8.88;6.53;;;1.60;99.90;;;;;;5107694;28;20012;-82
2023/12/22 00:24:01;;;;;;;8.20;5.75;;;1.60;99.90;;;;;;5102785;28;20037;-82
2023/12/22 00:26:27;;;;;;;12.98;7.40;;;1.60;99.90;;;;;;5098259;28;20620;-82
2023/12/22 00:28:52;;;;;;;10.10;5.90;;;1.60;99.90;;;;;;5111490;28;20039;-82
2023/12/22 00:31:18;;;;;;;9.40;6.20;;;1.50;99.90;;;;;;5112357;28;20019;-81
2023/12/22 00:33:44;;;;;;;9.77;6.95;;;1.50;99.90;;;;;;5092186;28;20035;-83
2023/12/22 00:36:10;;;;;;;11.30;5.30;;;1.50;99.90;;;;;;5104120;28;20016;-83
2023/12/22 00:38:36;;;;;;;9.40;5.63;;;1.50;99.90;;;;;;5111214;28;20468;-83
2023/12/22 00:41:02;;;;;;;10.85;6.35;;;1.50;99.90;;;;;;5113352;28;20020;-81
2023/12/22 00:43:28;;;;;;;9.30;5.80;;;1.50;99.90;;;;;;5119667;28;20027;-81
2023/12/22 00:45:53;;;;;;;10.45;7.18;;;1.50;99.90;;;;;;5113453;28;20032;-82
2023/12/22 00:48:19;;;;;;;11.82;6.57;;;1.50;99.90;;;;;;5120904;28;20027;-82
2023/12/22 00:50:46;;;;;;;9.77;5.38;;;1.50;99.90;;;;;;5112420;28;20020;-81
2023/12/22 00:53:12;;;;;;;10.32;5.85;;;1.40;99.90;;;;;;5111412;28;20457;-82
2023/12/22 00:55:37;;;;;;;10.15;6.53;;;1.40;99.90;;;;;;5097400;28;20016;-82
2023/12/22 00:58:03;;;;;;;14.75;7.93;;;1.40;99.90;;;;;;5121384;28;20089;-80
2023/12/22 01:00:29;;;;;;;13.88;8.25;;;1.40;99.90;;;;;;5133186;28;20031;-81
2023/12/22 01:02:55;;;;;;;14.63;8.27;;;1.40;99.90;;;;;;5119426;28;20113;-81
2023/12/22 01:05:21;;;;;;;17.88;8.00;;;1.40;99.90;;;;;;5102086;28;20039;-81
2023/12/22 01:07:47;;;;;;;18.45;9.02;;;1.30;99.90;;;;;;5093849;28;20020;-82
2023/12/22 01:10:12;;;;;;;18.88;9.75;;;1.30;99.90;;;;;;5107661;28;20031;-82
2023/12/22 01:12:38;;;;;;;16.92;10.30;;;1.30;99.90;;;;;;5099798;28;20030;-82
2023/12/22 01:15:05;;;;;;;20.98;10.85;;;1.30;99.90;;;;;;5115309;28;20108;-84
2023/12/22 01:17:31;;;;;;;15.85;8.75;;;1.30;99.90;;;;;;5115271;28;20169;-82
2023/12/22 01:19:56;;;;;;;15.77;9.15;;;1.30;99.90;;;;;;5113805;28;20106;-82
2023/12/22 01:22:25;;;;;;;21.70;9.77;;;1.30;99.90;;;;;;5100465;28;20020;-82
2023/12/22 01:24:51;;;;;;;23.27;11.10;;;1.30;99.90;;;;;;5094831;28;20485;-82
2023/12/22 01:27:17;;;;;;;20.15;9.50;;;1.30;99.90;;;;;;5094672;28;20054;-79
2023/12/22 01:29:43;;;;;;;23.00;10.18;;;1.30;99.90;;;;;;5110196;28;20024;-80
2023/12/22 01:32:09;;;;;;;18.33;9.93;;;1.30;99.90;;;;;;5111640;28;20388;-80
2023/12/22 01:34:35;;;;;;;19.88;11.38;;;1.30;99.90;;;;;;5112727;28;20024;-81
2023/12/22 01:37:01;;;;;;;17.92;9.20;;;1.40;99.90;;;;;;5113531;28;20016;-79
2023/12/22 01:39:27;;;;;;;18.42;10.23;;;1.40;99.90;;;;;;5114849;28;20088;-80
2023/12/22 01:41:53;;;;;;;14.85;8.35;;;1.50;99.90;;;;;;5097426;28;20024;-80
2023/12/22 01:44:19;;;;;;;16.33;9.40;;;1.50;99.90;;;;;;5093896;28;20039;-80
2023/12/22 01:46:45;;;;;;;16.67;9.43;;;1.50;99.90;;;;;;5097060;28;20016;-81
2023/12/22 01:49:11;;;;;;;14.38;8.50;;;1.50;99.90;;;;;;5114514;28;20027;-81
2023/12/22 01:51:39;;;;;;;13.07;8.63;;;1.50;99.90;;;;;;5114802;28;20102;-81
2023/12/22 01:54:06;;;;;;;13.70;6.93;;;1.50;99.90;;;;;;5109228;28;20253;-79
2023/12/22 01:56:32;;;;;;;12.60;8.27;;;1.50;99.90;;;;;;5104842;28;20032;-80
2023/12/22 01:59:00;;;;;;;11.48;7.10;;;1.40;99.90;;;;;;5099950;28;20020;-80
2023/12/22 02:01:27;;;;;;;10.13;5.97;;;1.40;99.90;;;;;;5108976;28;20114;-82
2023/12/22 02:03:54;;;;;;;12.23;7.55;;;1.40;99.90;;;;;;5113631;28;20038;-80
2023/12/22 02:06:21;;;;;;;12.73;9.00;;;1.30;99.90;;;;;;5101078;28;20047;-82
2023/12/22 02:08:47;;;;;;;14.05;8.45;;;1.30;99.90;;;;;;5099003;28;20024;-79
2023/12/22 02:11:14;;;;;;;14.47;8.83;;;1.30;99.90;;;;;;5092994;28;20091;-79
2023/12/22 02:13:41;;;;;;;11.85;7.88;;;1.30;99.90;;;;;;5106988;28;20026;-80
2023/12/22 02:16:16;;;;;;;13.25;8.35;;;1.30;99.90;;;;;;5114573;28;20012;-81
2023/12/22 02:18:46;;;;;;;10.82;6.63;;;1.30;99.90;;;;;;5111852;28;20438;-81
2023/12/22 02:21:12;;;;;;;10.60;6.70;;;1.30;99.90;;;;;;5112136;28;20016;-82
2023/12/22 02:23:37;;;;;;;12.07;7.85;;;1.30;99.90;;;;;;5108337;28;20035;-82
2023/12/22 02:26:15;;;;;;;12.50;8.57;;;1.30;99.90;;;;;;5111536;28;20393;-83
2023/12/22 02:28:41;;;;;;;;;;;1.30;99.90;;;;;;5109222;28;20461;-81
2023/12/22 02:31:15;;;;;;;11.43;6.13;;;1.30;99.90;;;;;;5103059;28;19907;-82
2023/12/22 02:33:42;;;;;;;12.43;7.40;;;1.30;99.90;;;;;;5104108;28;20024;-82
2023/12/22 02:36:09;;;;;;;10.52;5.70;;;1.30;99.90;;;;;;5095809;28;20398;-82
2023/12/22 02:38:36;;;;;;;11.88;8.15;;;1.30;99.90;;;;;;5093471;28;20044;-82
2023/12/22 02:41:03;;;;;;;18.75;7.88;;;1.30;99.90;;;;;;5095602;28;20203;-83
2023/12/22 02:43:29;;;;;;;11.83;7.60;;;1.30;99.90;;;;;;5110034;28;20059;-83
2023/12/22 02:45:55;;;;;;;10.48;7.40;;;1.30;99.90;;;;;;5094420;28;20040;-84
2023/12/22 02:48:21;;;;;;;12.90;8.25;;;1.30;99.90;;;;;;5093502;28;20333;-83
2023/12/22 02:50:46;;;;;;;11.63;7.43;;;1.30;99.90;;;;;;5099493;28;20469;-83
2023/12/22 02:53:12;;;;;;;11.88;6.65;;;1.30;99.90;;;;;;5101727;28;20107;-82
2023/12/22 02:55:38;;;;;;;12.00;7.75;;;1.40;99.90;;;;;;5111653;28;20026;-82
2023/12/22 02:58:04;;;;;;;12.82;7.38;;;1.30;99.90;;;;;;5114580;28;20132;-83
2023/12/22 03:00:30;;;;;;;13.13;7.20;;;1.30;99.90;;;;;;5110757;28;20020;-82
2023/12/22 03:02:56;;;;;;;11.63;7.65;;;1.30;99.90;;;;;;5094003;28;20095;-82
2023/12/22 03:05:21;;;;;;;10.82;7.72;;;1.30;99.90;;;;;;5107527;28;20040;-81
2023/12/22 03:07:47;;;;;;;10.77;7.07;;;1.30;99.90;;;;;;5113927;28;20098;-82
2023/12/22 03:10:13;;;;;;;16.10;7.05;;;1.20;99.90;;;;;;5115099;28;20023;-81
2023/12/22 03:12:39;;;;;;;11.80;7.03;;;1.20;99.90;;;;;;5111445;28;20406;-83
2023/12/22 03:15:06;;;;;;;11.38;8.30;;;1.20;99.90;;;;;;5103155;28;20032;-83
2023/12/22 03:17:32;;;;;;;12.60;8.67;;;1.20;99.90;;;;;;5099126;28;20181;-81
2023/12/22 03:19:57;;;;;;;10.90;7.13;;;1.30;99.90;;;;;;5114720;28;20551;-82
2023/12/22 03:22:23;;;;;;;13.00;7.85;;;1.30;99.90;;;;;;5113683;28;20098;-82
2023/12/22 03:24:49;;;;;;;12.93;8.10;;;1.20;99.90;;;;;;5112844;28;20027;-83
2023/12/22 03:27:17;;;;;;;9.65;6.35;;;1.20;99.90;;;;;;5113197;28;20022;-82
2023/12/22 03:29:44;;;;;;;8.18;5.40;;;1.20;99.90;;;;;;5113177;28;20380;-82
2023/12/22 03:32:10;;;;;;;11.82;7.57;;;1.10;99.90;;;;;;5104786;28;20027;-83
2023/12/22 03:34:36;;;;;;;10.98;8.20;;;1.10;99.90;;;;;;5093380;28;20032;-83
2023/12/22 03:37:01;;;;;;;11.07;8.32;;;1.10;99.90;;;;;;5093404;28;20035;-82
2023/12/22 03:39:27;;;;;;;9.60;6.05;;;1.10;99.90;;;;;;5104248;28;20028;-81
2023/12/22 03:41:53;;;;;;;13.30;8.30;;;1.10;99.90;;;;;;5110198;28;20020;-82
2023/12/22 03:44:19;;;;;;;9.10;5.93;;;1.10;99.90;;;;;;5100666;28;20051;-82
2023/12/22 03:46:45;;;;;;;11.70;8.27;;;1.10;99.90;;;;;;5098536;28;20511;-84
2023/12/22 03:49:11;;;;;;;6.25;5.07;;;1.10;99.90;;;;;;5095940;28;20020;-82
2023/12/22 03:51:41;;;;;;;10.57;6.55;;;1.10;99.90;;;;;;5118643;28;20046;-83
2023/12/22 03:54:07;;;;;;;15.20;8.65;;;1.10;99.90;;;;;;5104387;28;20044;-82
2023/12/22 03:56:33;;;;;;;12.90;8.40;;;1.00;99.90;;;;;;5114637;28;20016;-80
2023/12/22 03:58:59;;;;;;;10.15;6.72;;;1.10;99.90;;;;;;5126275;28;20480;-81
2023/12/22 04:01:25;;;;;;;11.38;7.88;;;1.10;99.90;;;;;;5121346;28;20015;-81
2023/12/22 04:03:51;;;;;;;14.30;9.73;;;1.10;99.90;;;;;;5097927;28;20465;-81
2023/12/22 04:06:17;;;;;;;13.48;8.32;;;1.10;99.90;;;;;;5113122;28;20024;-81
2023/12/22 04:08:42;;;;;;;14.35;8.65;;;1.10;99.90;;;;;;5091658;28;20473;-81
2023/12/22 04:11:08;;;;;;;12.77;9.90;;;1.10;99.90;;;;;;5109099;28;20024;-81
2023/12/22 04:13:34;;;;;;;10.73;8.23;;;1.10;99.90;;;;;;5111660;28;20027;-83
2023/12/22 04:16:01;;;;;;;13.13;8.20;;;1.10;99.90;;;;;;5125495;28;20048;-83
2023/12/22 04:18:27;;;;;;;13.95;8.77;;;1.10;99.90;;;;;;5097674;28;20020;-83
2023/12/22 04:20:55;;;;;;;10.63;7.72;;;1.10;99.90;;;;;;5108715;28;20422;-84
2023/12/22 04:23:20;;;;;;;;;;;1.10;99.90;;;;;;5113793;28;20441;-82
2023/12/22 04:25:46;;;;;;;12.02;7.97;;;1.10;99.90;;;;;;5110268;28;19958;-82
2023/12/22 04:28:12;;;;;;;7.82;5.40;;;1.10;99.90;;;;;;5110859;28;20031;-83
2023/12/22 04:30:38;;;;;;;12.38;8.05;;;1.20;99.90;;;;;;5108303;28;20062;-83
2023/12/22 04:33:04;;;;;;;13.10;7.63;;;1.10;99.90;;;;;;5096056;28;20020;-83
2023/12/22 04:35:30;;;;;;;13.15;7.35;;;1.10;99.90;;;;;;5100726;28;20095;-83
2023/12/22 04:37:56;;;;;;;12.82;9.20;;;1.20;99.90;;;;;;5114099;28;20125;-82
2023/12/22 04:40:22;;;;;;;16.17;10.13;;;1.20;99.90;;;;;;5117647;28;20844;-81
2023/12/22 04:42:48;;;;;;;14.38;10.20;;;1.20;99.90;;;;;;5113597;28;20034;-82
2023/12/22 04:45:16;;;;;;;14.40;9.27;;;1.20;99.90;;;;;;5119446;28;20050;-84
2023/12/22 04:47:42;;;;;;;12.57;7.63;;;1.20;99.90;;;;;;5111009;28;20024;-82
2023/12/22 04:50:09;;;;;;;13.68;9.30;;;1.20;99.90;;;;;;5114865;28;20045;-83
2023/12/22 04:52:34;;;;;;;11.60;7.72;;;1.20;99.90;;;;;;5128792;28;20058;-83
2023/12/22 04:55:00;;;;;;;12.93;9.45;;;1.20;99.90;;;;;;5110489;28;20028;-84
2023/12/22 04:57:26;;;;;;;13.50;8.93;;;1.20;99.90;;;;;;5097459;28;20147;-83
2023/12/22 04:59:52;;;;;;;11.73;7.00;;;1.20;99.90;;;;;;5098507;28;20101;-82
2023/12/22 05:02:18;;;;;;;11.40;8.52;;;1.20;99.90;;;;;;5112283;28;20019;-82
2023/12/22 05:04:44;;;;;;;14.55;10.25;;;1.20;99.90;;;;;;5113818;28;20036;-83
2023/12/22 05:07:10;;;;;;;17.70;9.57;;;1.20;99.90;;;;;;5099671;28;20101;-83
2023/12/22 05:09:36;;;;;;;13.70;8.90;;;1.20;99.90;;;;;;5102363;28;20020;-83
2023/12/22 05:12:03;;;;;;;14.52;10.88;;;1.20;99.90;;;;;;5095319;28;20016;-85
2023/12/22 05:14:29;;;;;;;14.95;9.68;;;1.10;99.90;;;;;;5095545;28;20024;-83
2023/12/22 05:16:56;;;;;;;14.38;10.55;;;1.20;99.90;;;;;;5096623;28;20099;-84
2023/12/22 05:19:22;;;;;;;;;;;1.20;99.90;;;;;;5101915;28;20037;-82
2023/12/22 05:21:49;;;;;;;15.43;10.68;;;1.20;99.90;;;;;;5113966;28;20056;-83
2023/12/22 05:24:15;;;;;;;16.67;10.88;;;1.10;99.90;;;;;;5111155;28;20546;-83
2023/12/22 05:26:41;;;;;;;14.95;10.95;;;1.10;99.90;;;;;;5098734;28;20389;-83
2023/12/22 05:29:08;;;;;;;19.77;12.35;;;1.10;99.90;;;;;;5097849;28;20012;-84
2023/12/22 05:31:34;;;;;;;13.65;8.25;;;1.10;99.90;;;;;;5112481;28;20358;-82
2023/12/22 05:34:00;;;;;;;17.35;11.00;;;1.20;99.90;;;;;;5103889;28;20016;-84
2023/12/22 05:36:26;;;;;;;18.50;12.35;;;1.20;99.90;;;;;;5110010;28;20024;-83
2023/12/22 05:38:52;;;;;;;19.92;11.88;;;1.20;99.90;;;;;;5107422;28;20024;-83
2023/12/22 05:41:18;;;;;;;21.23;13.05;;;1.30;99.90;;;;;;5108202;28;20051;-82
2023/12/22 05:43:44;;;;;;;25.60;17.45;;;1.30;99.90;;;;;;5099142;28;20040;-83
2023/12/22 05:46:09;;;;;;;34.03;18.77;;;1.30;99.90;;;;;;5094174;28;20027;-83
2023/12/22 05:48:35;;;;;;;28.20;18.15;;;1.30;99.90;;;;;;5096716;28;20020;-82
2023/12/22 05:51:07;;;;;;;23.23;14.35;;;1.30;99.90;;;;;;5101821;28;20031;-83
2023/12/22 05:53:33;;;;;;;27.55;15.38;;;1.30;99.90;;;;;;5110070;28;20040;-84
2023/12/22 05:55:59;;;;;;;28.27;17.05;;;1.20;99.90;;;;;;5094924;28;20445;-84
2023/12/22 05:58:25;;;;;;;25.77;15.30;;;1.20;99.90;;;;;;5092881;28;20067;-86
2023/12/22 06:00:51;;;;;;;21.80;13.25;;;1.10;99.90;;;;;;5094576;28;20016;-83
2023/12/22 06:03:17;;;;;;;23.33;12.73;;;1.20;99.90;;;;;;5094276;28;20024;-84
2023/12/22 06:05:43;;;;;;;21.33;13.82;;;1.10;99.90;;;;;;5110145;28;20043;-84
2023/12/22 06:08:09;;;;;;;25.63;15.75;;;1.20;99.90;;;;;;5103123;28;20015;-84
2023/12/22 06:10:36;;;;;;;22.42;15.30;;;1.20;99.90;;;;;;5099178;28;20012;-83
2023/12/22 06:13:03;;;;;;;26.67;16.08;;;1.20;99.90;;;;;;5094346;28;20054;-85
2023/12/22 06:15:29;;;;;;;;;;;1.20;99.90;;;;;;5094319;28;20024;-84
2023/12/22 06:17:55;;;;;;;27.25;15.82;;;1.20;99.90;;;;;;5093871;28;19994;-84
2023/12/22 06:20:21;;;;;;;25.27;15.55;;;1.10;99.90;;;;;;5107779;28;20019;-84
2023/12/22 06:22:47;;;;;;;22.63;14.50;;;1.20;99.90;;;;;;5096615;28;20024;-85
2023/12/22 06:25:13;;;;;;;23.75;15.35;;;1.10;99.90;;;;;;5103828;28;20527;-84
2023/12/22 06:27:39;;;;;;;22.13;14.07;;;1.20;99.90;;;;;;5097698;28;20035;-82
2023/12/22 06:30:06;;;;;;;20.38;11.57;;;1.10;99.90;;;;;;5111377;28;20019;-82
2023/12/22 06:32:32;;;;;;;21.55;14.05;;;1.10;99.90;;;;;;5114427;28;20058;-85
2023/12/22 06:35:00;;;;;;;24.60;15.20;;;1.10;99.90;;;;;;5100297;28;20469;-82
2023/12/22 06:37:26;;;;;;;;;;;1.10;99.90;;;;;;5106572;28;20069;-81
2023/12/22 06:39:52;;;;;;;21.25;14.88;;;1.10;99.90;;;;;;5098630;28;19912;-83
2023/12/22 06:42:17;;;;;;;22.17;12.73;;;1.10;99.90;;;;;;5099875;28;20028;-83
2023/12/22 06:44:43;;;;;;;19.48;14.23;;;1.20;99.90;;;;;;5107733;28;20058;-83
2023/12/22 06:47:09;;;;;;;23.88;15.43;;;1.10;99.90;;;;;;5095940;28;20027;-84
2023/12/22 06:49:35;;;;;;;14.70;10.25;;;1.10;99.90;;;;;;5105627;28;20027;-83
2023/12/22 06:52:01;;;;;;;20.80;14.27;;;1.20;99.90;;;;;;5105461;28;20020;-82
2023/12/22 06:54:27;;;;;;;17.30;11.23;;;1.20;99.90;;;;;;5106012;28;20374;-82
2023/12/22 06:56:53;;;;;;;19.70;11.52;;;1.20;99.90;;;;;;5107333;28;20031;-81
2023/12/22 06:59:19;;;;;;;17.70;12.57;;;1.20;99.90;;;;;;5094960;28;20024;-80
2023/12/22 07:01:44;;;;;;;19.58;13.43;;;1.20;99.90;;;;;;5113081;28;20020;-82
2023/12/22 07:04:10;;;;;;;15.95;10.35;;;1.20;99.90;;;;;;5113166;28;20028;-81
2023/12/22 07:06:36;;;;;;;19.25;9.75;;;1.30;99.90;;;;;;5104117;28;20123;-80
2023/12/22 07:09:19;;;;;;;13.93;10.07;;;1.30;99.90;;;;;;5103216;28;20028;-82
2023/12/22 07:11:50;;;;;;;13.38;8.77;;;1.20;99.90;;;;;;5119136;28;20081;-83
2023/12/22 07:14:17;;;;;;;12.80;9.82;;;1.20;99.90;;;;;;5105046;28;20081;-84
2023/12/22 07:16:43;;;;;;;20.95;11.88;;;1.10;99.90;;;;;;5107439;28;20098;-86
2023/12/22 07:19:10;;;;;;;13.63;8.73;;;1.10;99.90;;;;;;5114001;28;20054;-83
2023/12/22 07:21:36;;;;;;;;;;;1.30;99.90;;;;;;5105836;28;20079;-82
2023/12/22 07:24:02;;;;;;;15.93;11.18;;;1.20;99.90;;;;;;5114815;28;19950;-83
2023/12/22 07:26:28;;;;;;;15.27;11.82;;;1.20;99.90;;;;;;5122093;28;20027;-81
2023/12/22 07:28:54;;;;;;;12.65;6.93;;;1.30;99.90;;;;;;5115238;28;20013;-83
2023/12/22 07:31:20;;;;;;;14.05;9.63;;;1.40;99.90;;;;;;5101616;28;20519;-84
2023/12/22 07:33:46;;;;;;;16.73;11.25;;;1.40;99.90;;;;;;5106056;28;20560;-84
2023/12/22 07:36:18;;;;;;;15.68;10.32;;;1.40;99.90;;;;;;5098460;28;20111;-88
2023/12/22 07:38:44;;;;;;;18.90;12.95;;;1.40;99.90;;;;;;5110883;28;20062;-84
2023/12/22 07:41:10;;;;;;;15.00;9.75;;;1.50;99.90;;;;;;5100053;28;20024;-81
2023/12/22 07:43:36;;;;;;;11.65;9.95;;;1.50;99.90;;;;;;5104461;28;20042;-85
2023/12/22 07:46:02;;;;;;;14.93;8.70;;;1.50;99.90;;;;;;5101499;28;20107;-84
2023/12/22 07:48:28;;;;;;;19.20;12.07;;;1.50;99.90;;;;;;5092726;28;20107;-84
2023/12/22 07:50:54;;;;;;;15.60;9.63;;;1.50;99.90;;;;;;5101441;28;20111;-85
2023/12/22 07:53:21;;;;;;;12.75;9.18;;;1.60;99.90;;;;;;5112271;28;20015;-86
2023/12/22 07:55:47;;;;;;;13.85;9.60;;;1.60;99.90;;;;;;5095720;28;20346;-82
2023/12/22 07:58:13;;;;;;;16.27;10.20;;;1.60;99.90;;;;;;5105703;28;20053;-81
2023/12/22 08:00:39;;;;;;;16.25;10.82;;;1.50;99.90;;;;;;5103591;28;20019;-82
2023/12/22 08:03:05;;;;;;;16.23;9.75;;;1.60;99.90;;;;;;5115228;28;20026;-81
2023/12/22 08:05:31;;;;;;;17.98;10.43;;;1.60;99.90;;;;;;5114008;28;20520;-81
2023/12/22 08:07:57;;;;;;;12.82;8.18;;;1.60;99.90;;;;;;5116556;28;20464;-81
2023/12/22 08:10:23;;;;;;;13.45;8.98;;;1.60;99.90;;;;;;5107328;28;20045;-82
2023/12/22 08:12:49;;;;;;;15.50;9.85;;;1.60;99.90;;;;;;5100781;28;20024;-83
2023/12/22 08:15:15;;;;;;;16.20;10.48;;;1.50;99.90;;;;;;5116892;28;20024;-83
2023/12/22 08:17:48;;;;;;;16.13;10.23;;;1.60;99.90;;;;;;5107668;28;20093;-82
2023/12/22 08:20:19;;;;;;;14.50;8.75;;;1.80;99.90;;;;;;5097824;28;20051;-83
2023/12/22 08:22:48;;;;;;;16.27;11.65;;;1.90;99.90;;;;;;5102332;28;20028;-83
2023/12/22 08:25:15;;;;;;;16.73;9.32;;;2.00;99.90;;;;;;5098209;28;20051;-83
2023/12/22 08:27:42;;;;;;;15.55;11.35;;;2.10;99.90;;;;;;5096457;28;20020;-83
2023/12/22 08:30:09;;;;;;;15.85;10.85;;;2.10;99.90;;;;;;5095614;28;20169;-82
2023/12/22 08:32:35;;;;;;;20.02;12.43;;;2.20;99.90;;;;;;5105997;28;20020;-83
2023/12/22 08:35:00;;;;;;;14.52;11.23;;;2.10;99.90;;;;;;5103926;28;20373;-84
2023/12/22 08:37:26;;;;;;;14.18;9.23;;;2.10;99.90;;;;;;5105949;28;20028;-84
2023/12/22 08:39:52;;;;;;;16.35;11.10;;;2.10;99.90;;;;;;5099582;28;20031;-82
2023/12/22 08:42:18;;;;;;;12.52;10.38;;;2.10;99.90;;;;;;5097996;28;20024;-82
2023/12/22 08:44:44;;;;;;;14.45;9.63;;;2.00;99.90;;;;;;5102220;28;20040;-83
2023/12/22 08:47:10;;;;;;;13.18;6.75;;;2.00;99.90;;;;;;5120636;28;20024;-82
2023/12/22 08:49:36;;;;;;;15.05;9.85;;;2.00;99.90;;;;;;5109670;28;20118;-83
2023/12/22 08:52:03;;;;;;;13.35;10.38;;;2.00;99.90;;;;;;5098453;28;20103;-83
2023/12/22 08:54:30;;;;;;;16.70;9.55;;;2.10;99.90;;;;;;5100896;28;20035;-82
2023/12/22 08:56:55;;;;;;;19.35;11.05;;;2.30;99.90;;;;;;5110841;28;20027;-88
2023/12/22 08:59:21;;;;;;;19.02;10.95;;;2.40;99.90;;;;;;5106394;28;20024;-87
2023/12/22 09:01:47;;;;;;;16.92;11.88;;;2.50;99.80;;;;;;5105494;28;20016;-86
2023/12/22 09:04:13;;;;;;;18.63;11.35;;;2.60;99.90;;;;;;5118105;28;20035;-83
2023/12/22 09:06:39;;;;;;;19.70;12.80;;;2.80;99.70;;;;;;5107633;28;20028;-83
2023/12/22 09:09:06;;;;;;;22.52;14.88;;;2.90;99.50;;;;;;5096854;28;20460;-87
2023/12/22 09:11:32;;;;;;;26.40;16.70;;;3.00;99.30;;;;;;5099316;28;20067;-84
2023/12/22 09:13:58;;;;;;;31.10;18.13;;;3.10;99.00;;;;;;5108253;28;20331;-81
2023/12/22 09:16:27;;;;;;;26.50;16.42;;;3.20;98.80;;;;;;5114689;28;20532;-83
2023/12/22 09:18:53;;;;;;;28.80;18.20;;;3.30;98.50;;;;;;5101502;28;20032;-82
2023/12/22 09:21:19;;;;;;;27.27;19.55;;;3.30;98.40;;;;;;5100576;28;20439;-81
2023/12/22 09:23:46;;;;;;;24.98;18.13;;;3.40;98.10;;;;;;5101964;28;20032;-81
2023/12/22 09:26:13;;;;;;;25.02;16.15;;;3.50;98.10;;;;;;5105529;28;20036;-83
2023/12/22 09:28:40;;;;;;;27.73;19.48;;;3.60;97.90;;;;;;5108322;28;20028;-83
2023/12/22 09:31:09;;;;;;;26.92;17.80;;;3.70;97.40;;;;;;5106244;28;20487;-83
2023/12/22 09:33:35;;;;;;;25.98;18.20;;;3.80;97.30;;;;;;5105280;28;20015;-80
2023/12/22 09:36:01;;;;;;;25.83;15.55;;;3.80;97.10;;;;;;5113535;28;20069;-82
2023/12/22 09:38:27;;;;;;;22.35;15.77;;;3.70;96.60;;;;;;5100869;28;20089;-83
2023/12/22 09:40:54;;;;;;;22.03;16.57;;;3.50;96.50;;;;;;5100561;28;20069;-82
2023/12/22 09:43:20;;;;;;;24.38;15.80;;;3.40;96.70;;;;;;5100264;28;20310;-82
2023/12/22 09:45:46;;;;;;;17.40;14.65;;;3.40;96.70;;;;;;5111734;28;20098;-81
2023/12/22 09:48:16;;;;;;;20.70;14.85;;;3.30;96.70;;;;;;5097018;27;20028;-80
2023/12/22 09:50:46;;;;;;;24.88;14.55;;;3.30;96.60;;;;;;5100146;28;20019;-81
2023/12/22 09:53:16;;;;;;;21.35;14.07;;;3.10;96.50;;;;;;5102418;28;20107;-81
2023/12/22 09:55:45;;;;;;;22.67;15.93;;;2.90;96.70;;;;;;5100579;28;20373;-86
2023/12/22 09:58:16;;;;;;;20.95;14.90;;;2.80;96.80;;;;;;5108346;28;20024;-81
2023/12/22 10:00:43;;;;;;;22.63;13.98;;;2.70;96.80;;;;;;5102649;28;20069;-81
2023/12/22 10:03:12;;;;;;;21.48;13.63;;;2.70;96.90;;;;;;5099113;28;20469;-81
2023/12/22 10:05:41;;;;;;;19.60;12.98;;;2.60;96.90;;;;;;5092672;28;20845;-84
2023/12/22 10:08:10;;;;;;;21.55;14.63;;;2.70;97.20;;;;;;5097536;28;20020;-81
2023/12/22 10:10:41;;;;;;;19.90;13.68;;;2.80;97.40;;;;;;5094820;28;20059;-83
2023/12/22 10:13:09;;;;;;;19.73;13.57;;;2.90;97.20;;;;;;5097635;28;20073;-82
2023/12/22 10:15:41;;;;;;;15.05;11.45;;;3.10;97.20;;;;;;5094165;28;20093;-80
2023/12/22 10:18:07;;;;;;;21.83;13.38;;;3.40;97.00;;;;;;5106376;28;20060;-81
2023/12/22 10:20:32;;;;;;;20.60;11.93;;;3.50;96.50;;;;;;5114386;28;20103;-85
2023/12/22 10:22:58;;;;;;;19.65;12.32;;;3.40;96.20;;;;;;5106582;28;20108;-81
2023/12/22 10:25:29;;;;;;;19.02;13.43;;;3.50;96.20;;;;;;5111841;28;20031;-82
2023/12/22 10:27:55;;;;;;;17.98;12.80;;;3.40;96.00;;;;;;5118046;28;20024;-81
2023/12/22 10:30:23;;;;;;;19.15;13.23;;;3.30;96.00;;;;;;5107336;28;20038;-82
2023/12/22 10:32:51;;;;;;;17.50;11.77;;;3.20;95.90;;;;;;5093685;28;20396;-82
2023/12/22 10:35:17;;;;;;;17.10;11.60;;;3.00;95.80;;;;;;5092740;28;20054;-81
2023/12/22 10:37:45;;;;;;;18.52;12.45;;;2.90;96.00;;;;;;5107041;28;20066;-82
2023/12/22 10:40:12;;;;;;;18.55;12.32;;;2.80;96.10;;;;;;5102651;28;20020;-82
2023/12/22 10:42:39;;;;;;;23.10;12.27;;;2.70;96.10;;;;;;5106862;28;20059;-81
2023/12/22 10:45:06;;;;;;;;;;;2.70;96.30;;;;;;5102580;28;20370;-81
2023/12/22 10:47:32;;;;;;;15.77;11.40;;;2.60;96.40;;;;;;5102768;28;20011;-82
2023/12/22 10:50:03;;;;;;;19.08;12.95;;;2.50;96.60;;;;;;5107897;28;20427;-82
2023/12/22 10:52:29;;;;;;;15.52;11.07;;;2.40;96.70;;;;;;5102191;28;20020;-80
2023/12/22 10:54:57;;;;;;;14.88;10.32;;;2.40;96.90;;;;;;5098445;28;20398;-81
2023/12/22 10:57:23;;;;;;;35.80;27.50;;;2.40;96.90;;;;;;5110996;28;20084;-82
2023/12/22 10:59:50;;;;;;;16.48;11.52;;;2.30;97.10;;;;;;5113028;28;20111;-84
2023/12/22 11:02:18;;;;;;;18.83;11.10;;;2.30;97.10;;;;;;5108069;28;20027;-82
2023/12/22 11:05:00;;;;;;;16.90;11.18;;;2.30;97.20;;;;;;5101265;28;20028;-81
2023/12/22 11:07:28;;;;;;;14.95;9.73;;;2.30;97.20;;;;;;5109769;28;20399;-82
2023/12/22 11:09:57;;;;;;;15.70;10.75;;;2.10;97.50;;;;;;5097611;28;20031;-81
2023/12/22 11:12:26;;;;;;;15.43;9.82;;;2.00;97.50;;;;;;5102906;28;20032;-82
2023/12/22 11:14:53;;;;;;;15.85;12.00;;;1.90;97.70;;;;;;5107210;28;20019;-80
2023/12/22 11:17:22;;;;;;;17.25;10.13;;;1.90;98.00;;;;;;5102630;28;20031;-82
2023/12/22 11:19:54;;;;;;;12.35;9.85;;;1.90;98.00;;;;;;5101415;28;20378;-81
2023/12/22 11:22:21;;;;;;;15.85;11.25;;;1.90;98.10;;;;;;5097878;28;20019;-87
2023/12/22 11:24:49;;;;;;;18.20;10.60;;;1.90;98.10;;;;;;5111415;28;20016;-89
2023/12/22 11:27:19;;;;;;;13.93;10.02;;;1.90;98.00;;;;;;5113927;28;20063;-88
2023/12/22 11:29:49;;;;;;;17.27;11.52;;;1.90;98.10;;;;;;5099156;28;20043;-87
2023/12/22 11:32:19;;;;;;;18.13;11.50;;;1.80;98.20;;;;;;5105168;28;20035;-87
2023/12/22 11:34:47;;;;;;;14.75;11.13;;;1.80;98.30;;;;;;5108472;28;20365;-88
2023/12/22 11:37:13;;;;;;;14.98;10.05;;;1.80;98.30;;;;;;5095026;28;20024;-90
2023/12/22 11:39:41;;;;;;;23.63;17.95;;;1.80;98.30;;;;;;5107674;28;20055;-90
2023/12/22 11:42:16;;;;;;;13.88;9.43;;;1.70;98.40;;;;;;5099287;28;20053;-88
2023/12/22 11:44:42;;;;;;;15.30;10.05;;;1.70;98.40;;;;;;5103852;28;20054;-82
2023/12/22 11:47:10;;;;;;;15.18;9.23;;;1.70;98.50;;;;;;5094983;28;20044;-83
2023/12/22 11:49:37;;;;;;;;;;;1.60;98.50;;;;;;5099155;28;20389;-85
2023/12/22 11:52:13;;;;;;;20.00;10.55;;;1.60;98.60;;;;;;5105949;28;20448;-85
2023/12/22 11:54:54;;;;;;;12.63;9.38;;;1.60;98.70;;;;;;5111296;28;20027;-86
2023/12/22 11:57:30;;;;;;;12.35;8.63;;;1.60;98.80;;;;;;5100488;28;20016;-84
2023/12/22 11:59:56;;;;;;;17.27;11.23;;;1.60;98.80;;;;;;5096379;28;20054;-84
2023/12/22 12:02:23;;;;;;;12.10;9.17;;;1.50;98.90;;;;;;5093287;28;20085;-88
2023/12/22 12:04:50;;;;;;;15.65;7.93;;;1.50;99.10;;;;;;5103849;28;20093;-85
2023/12/22 12:07:49;;;;;;;12.57;9.55;;;1.50;99.10;;;;;;5109747;28;20503;-84
2023/12/22 12:10:33;;;;;;;12.40;7.60;;;1.50;99.20;;;;;;5097597;28;20030;-79
2023/12/22 12:13:09;;;;;;;13.02;7.32;;;1.50;99.30;;;;;;5096330;28;20327;-84
2023/12/22 12:15:35;;;;;;;17.05;10.48;;;1.40;99.40;;;;;;5100820;28;20020;-83
2023/12/22 12:18:02;;;;;;;12.95;9.20;;;1.40;99.60;;;;;;5092605;28;20070;-84
2023/12/22 12:20:28;;;;;;;14.90;9.23;;;1.50;99.50;;;;;;5105181;28;20034;-85
2023/12/22 12:22:56;;;;;;;14.52;8.35;;;1.40;99.70;;;;;;5102275;28;20028;-84
2023/12/22 12:25:25;;;;;;;13.40;9.73;;;1.40;99.70;;;;;;5118625;28;20048;-84
2023/12/22 12:28:02;;;;;;;15.32;10.23;;;1.40;99.80;;;;;;5112883;28;20038;-84
2023/12/22 12:30:28;;;;;;;14.48;9.80;;;1.50;99.80;;;;;;5097374;28;20009;-86
2023/12/22 12:32:56;;;;;;;13.25;9.15;;;1.50;99.80;;;;;;5108547;28;20032;-80
2023/12/22 12:35:24;;;;;;;11.75;8.07;;;1.50;99.80;;;;;;5105759;28;20028;-81
2023/12/22 12:37:52;;;;;;;12.18;8.32;;;1.50;99.70;;;;;;5111332;28;20020;-81
2023/12/22 12:40:23;;;;;;;12.15;8.57;;;1.50;99.70;;;;;;5095170;28;20024;-82
2023/12/22 12:42:50;;;;;;;14.23;8.32;;;1.40;99.80;;;;;;5102632;28;20422;-85
2023/12/22 12:45:22;;;;;;;13.32;9.43;;;1.40;99.90;;;;;;5102404;28;20047;-85